sensor_id;sensor_type;location;lat;lon;timestamp;pressure;altitude;pressure_sealevel;temperature;humidity
52745;BME280;38637;49.984;20.426;2023-02-19T00:01:24;98974.72;;;7.96;93.15
52745;BME280;38637;49.984;20.426;2023-02-19T00:03:52;98976.56;;;7.90;93.10
52745;BME280;38637;49.984;20.426;2023-02-19T00:06:18;98974.88;;;7.89;93.17
52745;BME280;38637;49.984;20.426;2023-02-19T00:08:45;98983.88;;;7.90;94.15
52745;BME280;38637;49.984;20.426;2023-02-19T00:11:12;98980.84;;;7.86;93.15
52745;BME280;38637;49.984;20.426;2023-02-19T00:13:40;98979.19;;;7.85;93.07
52745;BME280;38637;49.984;20.426;2023-02-19T00:16:31;98984.63;;;7.85;95.37
52745;BME280;38637;49.984;20.426;2023-02-19T00:18:57;98985.88;;;7.77;93.97
52745;BME280;38637;49.984;20.426;2023-02-19T00:21:23;98988.78;;;7.71;94.53
52745;BME280;38637;49.984;20.426;2023-02-19T00:23:53;98982.72;;;7.64;95.42
52745;BME280;38637;49.984;20.426;2023-02-19T00:26:19;98987.28;;;7.58;94.88
52745;BME280;38637;49.984;20.426;2023-02-19T00:28:46;98983.44;;;7.54;94.07
52745;BME280;38637;49.984;20.426;2023-02-19T00:31:32;98981.25;;;7.56;94.00
52745;BME280;38637;49.984;20.426;2023-02-19T00:34:01;98969.06;;;7.58;94.30
52745;BME280;38637;49.984;20.426;2023-02-19T00:36:27;98975.91;;;7.61;94.25
52745;BME280;38637;49.984;20.426;2023-02-19T00:38:53;98981.09;;;7.63;94.56
52745;BME280;38637;49.984;20.426;2023-02-19T00:41:20;98990.63;;;7.65;93.92
52745;BME280;38637;49.984;20.426;2023-02-19T00:44:11;98987.66;;;7.67;93.82
52745;BME280;38637;49.984;20.426;2023-02-19T00:46:42;98992.84;;;7.68;93.93
52745;BME280;38637;49.984;20.426;2023-02-19T00:49:08;98993.91;;;7.67;93.52
52745;BME280;38637;49.984;20.426;2023-02-19T00:51:37;98998.03;;;7.70;94.26
52745;BME280;38637;49.984;20.426;2023-02-19T00:54:04;98986.34;;;7.69;93.36
52745;BME280;38637;49.984;20.426;2023-02-19T00:56:29;98975.97;;;7.66;93.58
52745;BME280;38637;49.984;20.426;2023-02-19T00:58:55;98974.97;;;7.72;94.64
52745;BME280;38637;49.984;20.426;2023-02-19T01:01:21;98974.38;;;7.70;94.49
52745;BME280;38637;49.984;20.426;2023-02-19T01:03:47;98982.47;;;7.65;92.46
52745;BME280;38637;49.984;20.426;2023-02-19T01:06:15;98984.69;;;7.68;94.87
52745;BME280;38637;49.984;20.426;2023-02-19T01:08:41;98983.88;;;7.68;94.38
52745;BME280;38637;49.984;20.426;2023-02-19T01:11:08;98983.03;;;7.67;94.32
52745;BME280;38637;49.984;20.426;2023-02-19T01:13:34;98982.53;;;7.70;94.65
52745;BME280;38637;49.984;20.426;2023-02-19T01:16:09;98981.47;;;7.71;95.27
52745;BME280;38637;49.984;20.426;2023-02-19T01:18:35;98983.63;;;7.69;93.52
52745;BME280;38637;49.984;20.426;2023-02-19T01:21:05;98983.03;;;7.67;93.27
52745;BME280;38637;49.984;20.426;2023-02-19T01:23:31;98981.41;;;7.66;92.77
52745;BME280;38637;49.984;20.426;2023-02-19T01:25:56;98981.97;;;7.68;93.35
52745;BME280;38637;49.984;20.426;2023-02-19T01:28:21;98977.38;;;7.69;93.88
52745;BME280;38637;49.984;20.426;2023-02-19T01:30:47;98978.44;;;7.68;93.02
52745;BME280;38637;49.984;20.426;2023-02-19T01:33:12;98971.09;;;7.68;92.82
52745;BME280;38637;49.984;20.426;2023-02-19T01:35:38;98973.25;;;7.66;91.92
52745;BME280;38637;49.984;20.426;2023-02-19T01:38:04;98953.44;;;7.66;92.07
52745;BME280;38637;49.984;20.426;2023-02-19T01:40:31;98968.38;;;7.68;93.16
52745;BME280;38637;49.984;20.426;2023-02-19T01:42:56;98965.41;;;7.70;93.20
52745;BME280;38637;49.984;20.426;2023-02-19T01:48:13;98960.22;;;7.68;93.13
52745;BME280;38637;49.984;20.426;2023-02-19T01:50:46;98961.81;;;7.64;92.08
52745;BME280;38637;49.984;20.426;2023-02-19T01:53:16;98945.50;;;7.64;93.85
52745;BME280;38637;49.984;20.426;2023-02-19T01:55:45;98942.22;;;7.62;93.34
52745;BME280;38637;49.984;20.426;2023-02-19T01:58:10;98946.53;;;7.58;93.30
52745;BME280;38637;49.984;20.426;2023-02-19T02:00:36;98953.03;;;7.57;93.29
52745;BME280;38637;49.984;20.426;2023-02-19T02:03:02;98954.09;;;7.56;93.54
52745;BME280;38637;49.984;20.426;2023-02-19T02:05:36;98946.53;;;7.58;93.51
52745;BME280;38637;49.984;20.426;2023-02-19T02:08:04;98941.34;;;7.56;94.26
52745;BME280;38637;49.984;20.426;2023-02-19T02:10:49;98947.03;;;7.55;94.94
52745;BME280;38637;49.984;20.426;2023-02-19T02:13:14;98942.59;;;7.49;94.76
52745;BME280;38637;49.984;20.426;2023-02-19T02:16:12;98931.16;;;7.47;93.60
52745;BME280;38637;49.984;20.426;2023-02-19T02:18:39;98927.63;;;7.46;94.51
52745;BME280;38637;49.984;20.426;2023-02-19T02:24:27;98933.06;;;7.46;94.41
52745;BME280;38637;49.984;20.426;2023-02-19T02:30:24;98930.59;;;7.45;93.95
52745;BME280;38637;49.984;20.426;2023-02-19T02:35:43;98917.25;;;7.43;92.75
52745;BME280;38637;49.984;20.426;2023-02-19T02:38:11;98919.97;;;7.43;93.53
52745;BME280;38637;49.984;20.426;2023-02-19T02:40:41;98918.91;;;7.44;92.73
52745;BME280;38637;49.984;20.426;2023-02-19T02:43:07;98926.22;;;7.44;93.12
52745;BME280;38637;49.984;20.426;2023-02-19T02:45:33;98913.22;;;7.46;94.08
52745;BME280;38637;49.984;20.426;2023-02-19T02:48:15;98918.41;;;7.47;94.04
52745;BME280;38637;49.984;20.426;2023-02-19T02:50:46;98903.97;;;7.47;94.70
52745;BME280;38637;49.984;20.426;2023-02-19T02:53:25;98907.47;;;7.42;93.78
52745;BME280;38637;49.984;20.426;2023-02-19T02:56:13;98899.75;;;7.34;93.62
52745;BME280;38637;49.984;20.426;2023-02-19T02:58:39;98893.50;;;7.33;94.81
52745;BME280;38637;49.984;20.426;2023-02-19T03:01:12;98906.19;;;7.28;94.20
52745;BME280;38637;49.984;20.426;2023-02-19T03:04:04;98905.66;;;7.26;95.04
52745;BME280;38637;49.984;20.426;2023-02-19T03:06:36;98899.63;;;7.24;94.62
52745;BME280;38637;49.984;20.426;2023-02-19T03:09:17;98903.97;;;7.25;94.97
52745;BME280;38637;49.984;20.426;2023-02-19T03:11:45;98906.47;;;7.26;96.01
52745;BME280;38637;49.984;20.426;2023-02-19T03:14:41;98894.94;;;7.19;96.73
52745;BME280;38637;49.984;20.426;2023-02-19T03:17:37;98904.56;;;7.27;96.74
52745;BME280;38637;49.984;20.426;2023-02-19T03:20:24;98898.03;;;7.28;97.34
52745;BME280;38637;49.984;20.426;2023-02-19T03:22:52;98890.41;;;7.25;97.64
52745;BME280;38637;49.984;20.426;2023-02-19T03:25:21;98897.72;;;7.24;97.42
52745;BME280;38637;49.984;20.426;2023-02-19T03:28:08;98889.28;;;7.21;97.46
52745;BME280;38637;49.984;20.426;2023-02-19T03:30:39;98870.19;;;7.16;98.06
52745;BME280;38637;49.984;20.426;2023-02-19T03:33:20;98889.50;;;7.19;97.41
52745;BME280;38637;49.984;20.426;2023-02-19T03:36:02;98884.59;;;7.16;97.93
52745;BME280;38637;49.984;20.426;2023-02-19T03:44:05;98866.28;;;7.06;97.66
52745;BME280;38637;49.984;20.426;2023-02-19T03:49:19;98865.38;;;7.01;97.08
52745;BME280;38637;49.984;20.426;2023-02-19T03:51:59;98875.41;;;7.00;97.53
52745;BME280;38637;49.984;20.426;2023-02-19T03:54:36;98864.25;;;6.97;97.64
52745;BME280;38637;49.984;20.426;2023-02-19T03:59:50;98874.09;;;7.03;98.38
52745;BME280;38637;49.984;20.426;2023-02-19T04:02:42;98873.59;;;7.06;98.60
52745;BME280;38637;49.984;20.426;2023-02-19T04:05:15;98866.53;;;7.05;98.48
52745;BME280;38637;49.984;20.426;2023-02-19T04:07:45;98866.53;;;7.05;98.66
52745;BME280;38637;49.984;20.426;2023-02-19T04:10:12;98866.03;;;7.08;99.39
52745;BME280;38637;49.984;20.426;2023-02-19T04:12:39;98865.22;;;7.07;98.78
52745;BME280;38637;49.984;20.426;2023-02-19T04:15:09;98861.41;;;7.08;98.98
52745;BME280;38637;49.984;20.426;2023-02-19T04:17:58;98868.28;;;7.16;100.00
52745;BME280;38637;49.984;20.426;2023-02-19T04:20:27;98862.88;;;7.16;100.00
52745;BME280;38637;49.984;20.426;2023-02-19T04:22:53;98857.88;;;7.08;99.92
52745;BME280;38637;49.984;20.426;2023-02-19T04:25:21;98863.13;;;7.14;100.00
52745;BME280;38637;49.984;20.426;2023-02-19T04:27:47;98870.19;;;7.16;100.00
52745;BME280;38637;49.984;20.426;2023-02-19T04:30:13;98862.88;;;7.16;100.00
52745;BME280;38637;49.984;20.426;2023-02-19T04:32:39;98859.34;;;7.16;100.00
52745;BME280;38637;49.984;20.426;2023-02-19T04:35:05;98840.31;;;7.16;100.00
52745;BME280;38637;49.984;20.426;2023-02-19T04:37:30;98844.69;;;7.17;100.00
52745;BME280;38637;49.984;20.426;2023-02-19T04:39:55;98844.34;;;7.13;100.00
52745;BME280;38637;49.984;20.426;2023-02-19T04:42:20;98831.56;;;7.08;100.00
52745;BME280;38637;49.984;20.426;2023-02-19T04:44:46;98829.94;;;7.07;100.00
52745;BME280;38637;49.984;20.426;2023-02-19T04:47:11;98810.59;;;7.04;100.00
52745;BME280;38637;49.984;20.426;2023-02-19T04:49:36;98806.22;;;7.03;100.00
52745;BME280;38637;49.984;20.426;2023-02-19T04:52:02;98821.94;;;7.01;100.00
52745;BME280;38637;49.984;20.426;2023-02-19T04:54:27;98825.75;;;7.00;100.00
52745;BME280;38637;49.984;20.426;2023-02-19T04:56:52;98820.31;;;7.00;100.00
52745;BME280;38637;49.984;20.426;2023-02-19T04:59:18;98823.59;;;7.02;100.00
52745;BME280;38637;49.984;20.426;2023-02-19T05:01:43;98828.22;;;7.01;100.00
52745;BME280;38637;49.984;20.426;2023-02-19T05:04:08;98829.03;;;7.02;100.00
52745;BME280;38637;49.984;20.426;2023-02-19T05:06:34;98830.97;;;7.06;100.00
52745;BME280;38637;49.984;20.426;2023-02-19T05:08:59;98826.63;;;7.05;100.00
52745;BME280;38637;49.984;20.426;2023-02-19T05:11:24;98815.78;;;7.05;100.00
52745;BME280;38637;49.984;20.426;2023-02-19T05:13:50;98815.78;;;7.05;100.00
52745;BME280;38637;49.984;20.426;2023-02-19T05:16:15;98820.38;;;7.05;100.00
52745;BME280;38637;49.984;20.426;2023-02-19T05:18:43;98808.75;;;7.09;100.00
52745;BME280;38637;49.984;20.426;2023-02-19T05:21:09;98818.88;;;7.14;100.00
52745;BME280;38637;49.984;20.426;2023-02-19T05:23:34;98820.78;;;7.13;100.00
52745;BME280;38637;49.984;20.426;2023-02-19T05:26:08;98818.28;;;7.12;100.00
52745;BME280;38637;49.984;20.426;2023-02-19T05:28:33;98830.84;;;7.18;100.00
52745;BME280;38637;49.984;20.426;2023-02-19T05:31:04;98823.78;;;7.17;100.00
52745;BME280;38637;49.984;20.426;2023-02-19T05:33:30;98828.72;;;7.20;100.00
52745;BME280;38637;49.984;20.426;2023-02-19T05:35:55;98826.81;;;7.21;100.00
52745;BME280;38637;49.984;20.426;2023-02-19T05:38:21;98827.13;;;7.24;100.00
52745;BME280;38637;49.984;20.426;2023-02-19T05:40:47;98819.81;;;7.25;100.00
52745;BME280;38637;49.984;20.426;2023-02-19T05:43:13;98807.81;;;7.21;100.00
52745;BME280;38637;49.984;20.426;2023-02-19T05:45:38;98810.59;;;7.26;100.00
52745;BME280;38637;49.984;20.426;2023-02-19T05:48:05;98812.47;;;7.25;100.00
52745;BME280;38637;49.984;20.426;2023-02-19T05:50:32;98813.56;;;7.24;100.00
52745;BME280;38637;49.984;20.426;2023-02-19T05:52:59;98804.28;;;7.20;100.00
52745;BME280;38637;49.984;20.426;2023-02-19T05:55:26;98795.63;;;7.23;100.00
52745;BME280;38637;49.984;20.426;2023-02-19T05:57:51;98807.03;;;7.25;100.00
52745;BME280;38637;49.984;20.426;2023-02-19T06:00:18;98792.41;;;7.26;100.00
52745;BME280;38637;49.984;20.426;2023-02-19T06:02:44;98789.41;;;7.28;100.00
52745;BME280;38637;49.984;20.426;2023-02-19T06:05:10;98800.03;;;7.29;100.00
52745;BME280;38637;49.984;20.426;2023-02-19T06:07:36;98799.78;;;7.31;100.00
52745;BME280;38637;49.984;20.426;2023-02-19T06:10:04;98792.66;;;7.25;100.00
52745;BME280;38637;49.984;20.426;2023-02-19T06:12:29;98794.34;;;7.31;100.00
52745;BME280;38637;49.984;20.426;2023-02-19T06:14:55;98809.59;;;7.32;100.00
52745;BME280;38637;49.984;20.426;2023-02-19T06:17:20;98806.88;;;7.32;100.00
52745;BME280;38637;49.984;20.426;2023-02-19T06:19:45;98810.63;;;7.31;100.00
52745;BME280;38637;49.984;20.426;2023-02-19T06:22:13;98804.31;;;7.25;100.00
52745;BME280;38637;49.984;20.426;2023-02-19T06:24:38;98806.03;;;7.31;100.00
52745;BME280;38637;49.984;20.426;2023-02-19T06:27:07;98813.13;;;7.32;100.00
52745;BME280;38637;49.984;20.426;2023-02-19T06:29:33;98801.47;;;7.37;100.00
52745;BME280;38637;49.984;20.426;2023-02-19T06:31:59;98795.81;;;7.39;100.00
52745;BME280;38637;49.984;20.426;2023-02-19T06:34:25;98797.44;;;7.40;100.00
52745;BME280;38637;49.984;20.426;2023-02-19T06:36:51;98792.06;;;7.45;100.00
52745;BME280;38637;49.984;20.426;2023-02-19T06:39:16;98785.09;;;7.54;100.00
52745;BME280;38637;49.984;20.426;2023-02-19T06:41:42;98790.56;;;7.59;100.00
52745;BME280;38637;49.984;20.426;2023-02-19T06:44:07;98788.47;;;7.66;100.00
52745;BME280;38637;49.984;20.426;2023-02-19T06:46:33;98798.03;;;7.69;100.00
52745;BME280;38637;49.984;20.426;2023-02-19T06:48:59;98793.94;;;7.71;99.47
52745;BME280;38637;49.984;20.426;2023-02-19T06:51:24;98789.38;;;7.77;100.00
52745;BME280;38637;49.984;20.426;2023-02-19T06:53:52;98804.13;;;7.81;100.00
52745;BME280;38637;49.984;20.426;2023-02-19T06:56:33;98802.97;;;7.77;99.72
52745;BME280;38637;49.984;20.426;2023-02-19T06:59:02;98800.00;;;7.78;100.00
52745;BME280;38637;49.984;20.426;2023-02-19T07:01:29;98795.97;;;7.81;100.00
52745;BME280;38637;49.984;20.426;2023-02-19T07:03:54;98798.47;;;7.88;100.00
52745;BME280;38637;49.984;20.426;2023-02-19T07:06:21;98796.78;;;7.81;100.00
52745;BME280;38637;49.984;20.426;2023-02-19T07:08:48;98791.84;;;7.78;100.00
52745;BME280;38637;49.984;20.426;2023-02-19T07:11:13;98782.56;;;7.74;100.00
52745;BME280;38637;49.984;20.426;2023-02-19T07:13:38;98784.72;;;7.72;100.00
52745;BME280;38637;49.984;20.426;2023-02-19T07:16:06;98776.31;;;7.74;100.00
52745;BME280;38637;49.984;20.426;2023-02-19T07:18:32;98774.41;;;7.74;100.00
52745;BME280;38637;49.984;20.426;2023-02-19T07:21:11;98789.66;;;7.75;100.00
52745;BME280;38637;49.984;20.426;2023-02-19T07:23:37;98794.28;;;7.75;100.00
52745;BME280;38637;49.984;20.426;2023-02-19T07:26:02;98802.09;;;7.71;100.00
52745;BME280;38637;49.984;20.426;2023-02-19T07:28:28;98799.66;;;7.70;100.00
52745;BME280;38637;49.984;20.426;2023-02-19T07:30:53;98787.38;;;7.67;100.00
52745;BME280;38637;49.984;20.426;2023-02-19T07:33:23;98783.34;;;7.70;100.00
52745;BME280;38637;49.984;20.426;2023-02-19T07:35:50;98783.66;;;7.73;100.00
52745;BME280;38637;49.984;20.426;2023-02-19T07:38:16;98784.81;;;7.82;100.00
52745;BME280;38637;49.984;20.426;2023-02-19T07:40:49;98789.78;;;7.91;100.00
52745;BME280;38637;49.984;20.426;2023-02-19T07:43:15;98780.25;;;7.88;100.00
52745;BME280;38637;49.984;20.426;2023-02-19T07:45:40;98768.00;;;7.86;100.00
52745;BME280;38637;49.984;20.426;2023-02-19T07:48:05;98771.78;;;7.85;100.00
52745;BME280;38637;49.984;20.426;2023-02-19T07:50:30;98773.69;;;7.84;100.00
52745;BME280;38637;49.984;20.426;2023-02-19T07:52:56;98778.34;;;7.89;100.00
52745;BME280;38637;49.984;20.426;2023-02-19T07:55:21;98778.34;;;7.89;100.00
52745;BME280;38637;49.984;20.426;2023-02-19T07:57:46;98775.94;;;7.92;100.00
52745;BME280;38637;49.984;20.426;2023-02-19T08:00:12;98777.00;;;7.91;100.00
52745;BME280;38637;49.984;20.426;2023-02-19T08:02:37;98778.97;;;7.96;100.00
52745;BME280;38637;49.984;20.426;2023-02-19T08:05:21;98784.13;;;7.97;100.00
52745;BME280;38637;49.984;20.426;2023-02-19T08:07:47;98782.81;;;8.00;100.00
52745;BME280;38637;49.984;20.426;2023-02-19T08:10:12;98778.00;;;8.12;100.00
52745;BME280;38637;49.984;20.426;2023-02-19T08:12:58;98765.09;;;8.35;100.00
52745;BME280;38637;49.984;20.426;2023-02-19T08:15:43;98777.25;;;8.54;100.00
52745;BME280;38637;49.984;20.426;2023-02-19T08:18:09;98772.94;;;8.63;98.75
52745;BME280;38637;49.984;20.426;2023-02-19T08:20:35;98779.75;;;8.66;97.80
52745;BME280;38637;49.984;20.426;2023-02-19T08:23:00;98775.69;;;8.68;98.22
52745;BME280;38637;49.984;20.426;2023-02-19T08:25:26;98770.75;;;8.60;97.73
52745;BME280;38637;49.984;20.426;2023-02-19T08:27:52;98763.66;;;8.59;98.27
52745;BME280;38637;49.984;20.426;2023-02-19T08:30:17;98770.41;;;8.51;98.38
52745;BME280;38637;49.984;20.426;2023-02-19T08:32:42;98760.34;;;8.52;98.35
52745;BME280;38637;49.984;20.426;2023-02-19T08:35:07;98763.66;;;8.59;97.80
52745;BME280;38637;49.984;20.426;2023-02-19T08:37:33;98752.00;;;8.69;97.68
52745;BME280;38637;49.984;20.426;2023-02-19T08:39:58;98762.13;;;8.79;97.39
52745;BME280;38637;49.984;20.426;2023-02-19T08:42:23;98760.75;;;8.81;97.15
52745;BME280;38637;49.984;20.426;2023-02-19T08:44:49;98758.56;;;8.78;97.22
52745;BME280;38637;49.984;20.426;2023-02-19T08:47:14;98768.94;;;8.76;97.95
52745;BME280;38637;49.984;20.426;2023-02-19T08:49:39;98757.47;;;8.74;98.44
52745;BME280;38637;49.984;20.426;2023-02-19T08:52:05;98767.28;;;8.75;97.98
52745;BME280;38637;49.984;20.426;2023-02-19T08:54:30;98759.38;;;8.73;97.43
52745;BME280;38637;49.984;20.426;2023-02-19T08:56:55;98760.47;;;8.78;98.21
52745;BME280;38637;49.984;20.426;2023-02-19T08:59:20;98767.06;;;8.87;98.50
52745;BME280;38637;49.984;20.426;2023-02-19T09:01:46;98743.09;;;8.84;97.48
52745;BME280;38637;49.984;20.426;2023-02-19T09:04:11;98751.84;;;8.91;97.59
52745;BME280;38637;49.984;20.426;2023-02-19T09:06:37;98751.28;;;8.89;98.10
52745;BME280;38637;49.984;20.426;2023-02-19T09:09:03;98760.75;;;8.76;96.95
52745;BME280;38637;49.984;20.426;2023-02-19T09:11:28;98755.56;;;8.69;98.13
52745;BME280;38637;49.984;20.426;2023-02-19T09:13:55;98761.53;;;8.66;97.81
52745;BME280;38637;49.984;20.426;2023-02-19T09:16:20;98747.66;;;8.68;98.34
52745;BME280;38637;49.984;20.426;2023-02-19T09:18:45;98751.19;;;8.63;98.27
52745;BME280;38637;49.984;20.426;2023-02-19T09:21:11;98757.69;;;8.62;98.34
52745;BME280;38637;49.984;20.426;2023-02-19T09:23:36;98747.31;;;8.59;99.03
52745;BME280;38637;49.984;20.426;2023-02-19T09:26:03;98758.69;;;8.46;97.51
52745;BME280;38637;49.984;20.426;2023-02-19T09:28:31;98749.28;;;8.26;96.38
52745;BME280;38637;49.984;20.426;2023-02-19T09:30:56;98751.63;;;8.13;97.83
52745;BME280;38637;49.984;20.426;2023-02-19T09:33:21;98757.22;;;7.96;99.30
52745;BME280;38637;49.984;20.426;2023-02-19T09:35:47;98760.41;;;7.88;100.00
52745;BME280;38637;49.984;20.426;2023-02-19T09:38:12;98747.41;;;7.95;100.00
52745;BME280;38637;49.984;20.426;2023-02-19T09:40:38;98758.25;;;7.90;100.00
52745;BME280;38637;49.984;20.426;2023-02-19T09:43:08;98760.31;;;7.77;100.00
52745;BME280;38637;49.984;20.426;2023-02-19T09:45:38;98755.44;;;7.79;100.00
52745;BME280;38637;49.984;20.426;2023-02-19T09:48:04;98752.16;;;7.77;100.00
52745;BME280;38637;49.984;20.426;2023-02-19T09:50:36;98762.41;;;7.70;100.00
52745;BME280;38637;49.984;20.426;2023-02-19T09:53:06;98757.78;;;7.66;100.00
52745;BME280;38637;49.984;20.426;2023-02-19T09:55:40;98762.34;;;7.60;100.00
52745;BME280;38637;49.984;20.426;2023-02-19T09:58:41;98772.56;;;7.53;100.00
52745;BME280;38637;49.984;20.426;2023-02-19T10:01:09;98774.69;;;7.46;100.00
52745;BME280;38637;49.984;20.426;2023-02-19T10:03:43;98756.13;;;7.37;100.00
52745;BME280;38637;49.984;20.426;2023-02-19T10:06:18;98772.22;;;7.44;100.00
52745;BME280;38637;49.984;20.426;2023-02-19T10:08:45;98771.25;;;7.55;100.00
52745;BME280;38637;49.984;20.426;2023-02-19T10:11:11;98776.97;;;7.59;100.00
52745;BME280;38637;49.984;20.426;2023-02-19T10:14:02;98778.44;;;7.67;100.00
52745;BME280;38637;49.984;20.426;2023-02-19T10:16:35;98769.09;;;7.57;100.00
52745;BME280;38637;49.984;20.426;2023-02-19T10:19:05;98790.75;;;7.47;100.00
52745;BME280;38637;49.984;20.426;2023-02-19T10:21:34;98800.66;;;7.36;100.00
52745;BME280;38637;49.984;20.426;2023-02-19T10:24:01;98798.56;;;7.44;100.00
52745;BME280;38637;49.984;20.426;2023-02-19T10:26:28;98794.72;;;7.40;99.87
52745;BME280;38637;49.984;20.426;2023-02-19T10:28:59;98801.03;;;7.45;99.97
52745;BME280;38637;49.984;20.426;2023-02-19T10:31:24;98794.00;;;7.49;100.00
52745;BME280;38637;49.984;20.426;2023-02-19T10:33:52;98798.69;;;7.54;99.02
52745;BME280;38637;49.984;20.426;2023-02-19T10:36:35;98802.50;;;7.58;98.58
52745;BME280;38637;49.984;20.426;2023-02-19T10:39:02;98806.31;;;7.57;97.54
52745;BME280;38637;49.984;20.426;2023-02-19T10:41:31;98802.41;;;7.48;97.42
52745;BME280;38637;49.984;20.426;2023-02-19T10:44:02;98810.66;;;7.58;98.30
52745;BME280;38637;49.984;20.426;2023-02-19T10:46:32;98808.09;;;7.46;97.67
52745;BME280;38637;49.984;20.426;2023-02-19T10:49:04;98814.91;;;7.49;98.93
52745;BME280;38637;49.984;20.426;2023-02-19T10:54:27;98828.63;;;7.37;98.42
52745;BME280;38637;49.984;20.426;2023-02-19T10:56:58;98839.38;;;7.27;97.63
52745;BME280;38637;49.984;20.426;2023-02-19T10:59:54;98838.41;;;6.94;95.63
52745;BME280;38637;49.984;20.426;2023-02-19T11:02:23;98839.47;;;6.71;96.42
52745;BME280;38637;49.984;20.426;2023-02-19T11:05:03;98852.22;;;6.54;97.25
52745;BME280;38637;49.984;20.426;2023-02-19T11:07:28;98858.16;;;6.34;98.33
52745;BME280;38637;49.984;20.426;2023-02-19T11:09:55;98862.19;;;6.31;100.00
52745;BME280;38637;49.984;20.426;2023-02-19T11:12:29;98868.28;;;6.21;100.00
52745;BME280;38637;49.984;20.426;2023-02-19T11:14:55;98877.38;;;6.15;100.00
52745;BME280;38637;49.984;20.426;2023-02-19T11:17:25;98886.56;;;6.14;100.00
52745;BME280;38637;49.984;20.426;2023-02-19T11:19:53;98882.53;;;6.17;100.00
52745;BME280;38637;49.984;20.426;2023-02-19T11:22:32;98887.38;;;6.15;100.00
52745;BME280;38637;49.984;20.426;2023-02-19T11:25:20;98899.97;;;5.92;100.00
52745;BME280;38637;49.984;20.426;2023-02-19T11:30:43;98908.91;;;5.64;100.00
52745;BME280;38637;49.984;20.426;2023-02-19T11:35:47;98906.69;;;5.61;100.00
52745;BME280;38637;49.984;20.426;2023-02-19T11:38:15;98911.59;;;5.76;100.00
52745;BME280;38637;49.984;20.426;2023-02-19T11:57:08;98934.25;;;5.98;98.89
52745;BME280;38637;49.984;20.426;2023-02-19T11:59:53;98930.47;;;5.99;95.69
52745;BME280;38637;49.984;20.426;2023-02-19T12:02:39;98935.13;;;6.16;97.00
52745;BME280;38637;49.984;20.426;2023-02-19T12:05:26;98939.00;;;6.20;96.60
52745;BME280;38637;49.984;20.426;2023-02-19T12:14:25;98968.91;;;5.96;90.87
52745;BME280;38637;49.984;20.426;2023-02-19T12:22:32;98986.56;;;5.87;91.06
52745;BME280;38637;49.984;20.426;2023-02-19T12:28:12;98979.03;;;5.89;90.74
52745;BME280;38637;49.984;20.426;2023-02-19T12:36:47;98998.03;;;6.18;91.92
52745;BME280;38637;49.984;20.426;2023-02-19T12:47:07;98990.31;;;5.69;87.21
52745;BME280;38637;49.984;20.426;2023-02-19T12:49:42;99002.44;;;5.67;87.85
52745;BME280;38637;49.984;20.426;2023-02-19T12:52:20;99012.91;;;5.63;88.78
52745;BME280;38637;49.984;20.426;2023-02-19T12:54:52;99013.50;;;5.53;88.86
52745;BME280;38637;49.984;20.426;2023-02-19T12:57:26;99008.09;;;5.53;89.02
52745;BME280;38637;49.984;20.426;2023-02-19T12:59:58;99012.13;;;5.51;88.95
52745;BME280;38637;49.984;20.426;2023-02-19T13:02:34;99013.41;;;5.60;90.30
52745;BME280;38637;49.984;20.426;2023-02-19T13:08:02;99000.44;;;5.50;90.54
52745;BME280;38637;49.984;20.426;2023-02-19T13:10:43;99018.91;;;5.65;91.51
52745;BME280;38637;49.984;20.426;2023-02-19T13:13:21;99016.53;;;5.81;92.32
52745;BME280;38637;49.984;20.426;2023-02-19T13:15:52;99015.22;;;5.83;90.81
52745;BME280;38637;49.984;20.426;2023-02-19T13:18:24;99030.53;;;5.89;90.81
52745;BME280;38637;49.984;20.426;2023-02-19T13:20:51;99013.34;;;5.95;91.46
52745;BME280;38637;49.984;20.426;2023-02-19T13:23:24;99010.63;;;5.95;90.94
52745;BME280;38637;49.984;20.426;2023-02-19T13:29:13;99031.34;;;5.90;90.29
52745;BME280;38637;49.984;20.426;2023-02-19T13:34:49;99042.66;;;5.98;88.59
52745;BME280;38637;49.984;20.426;2023-02-19T13:37:17;99047.75;;;5.95;87.97
52745;BME280;38637;49.984;20.426;2023-02-19T13:39:53;99055.16;;;5.99;89.01
52745;BME280;38637;49.984;20.426;2023-02-19T13:42:25;99041.97;;;5.91;87.85
52745;BME280;38637;49.984;20.426;2023-02-19T13:44:51;99052.44;;;5.99;89.36
52745;BME280;38637;49.984;20.426;2023-02-19T13:50:29;99060.69;;;5.81;88.46
52745;BME280;38637;49.984;20.426;2023-02-19T13:53:06;99066.84;;;5.76;89.28
52745;BME280;38637;49.984;20.426;2023-02-19T13:55:47;99068.72;;;5.76;89.67
52745;BME280;38637;49.984;20.426;2023-02-19T14:00:58;99086.97;;;5.81;91.21
52745;BME280;38637;49.984;20.426;2023-02-19T14:03:43;99088.03;;;5.80;91.77
52745;BME280;38637;49.984;20.426;2023-02-19T14:06:10;99095.91;;;5.81;92.74
52745;BME280;38637;49.984;20.426;2023-02-19T14:11:11;99095.56;;;5.66;90.40
52745;BME280;38637;49.984;20.426;2023-02-19T14:16:31;99095.94;;;5.58;90.21
52745;BME280;38637;49.984;20.426;2023-02-19T14:19:13;99101.00;;;5.42;89.83
52745;BME280;38637;49.984;20.426;2023-02-19T14:21:39;99103.25;;;5.45;91.37
52745;BME280;38637;49.984;20.426;2023-02-19T14:24:10;99111.94;;;5.24;90.26
52745;BME280;38637;49.984;20.426;2023-02-19T14:26:36;99113.91;;;5.17;91.73
52745;BME280;38637;49.984;20.426;2023-02-19T14:29:06;99115.44;;;5.13;91.99
52745;BME280;38637;49.984;20.426;2023-02-19T14:31:36;99117.69;;;5.27;93.11
52745;BME280;38637;49.984;20.426;2023-02-19T14:34:04;99136.22;;;5.42;92.62
52745;BME280;38637;49.984;20.426;2023-02-19T14:36:32;99132.22;;;5.45;91.43
52745;BME280;38637;49.984;20.426;2023-02-19T14:41:36;99132.41;;;5.32;90.21
52745;BME280;38637;49.984;20.426;2023-02-19T14:44:05;99150.56;;;5.43;90.54
52745;BME280;38637;49.984;20.426;2023-02-19T14:46:40;99156.81;;;5.43;88.35
52745;BME280;38637;49.984;20.426;2023-02-19T14:49:24;99156.34;;;5.46;88.33